createdAt,value
2022-09-23T00:01:55.617Z,1.40
2022-09-23T00:04:26.351Z,1.40
2022-09-23T00:06:57.298Z,1.30
2022-09-23T00:09:28.047Z,1.70
2022-09-23T00:12:00.213Z,1.80
2022-09-23T00:14:31.145Z,1.80
2022-09-23T00:17:01.840Z,1.40
2022-09-23T00:19:32.926Z,1.40
2022-09-23T00:22:03.862Z,1.50
2022-09-23T00:24:34.849Z,1.70
2022-09-23T00:27:06.164Z,1.30
2022-09-23T00:29:37.031Z,1.50
2022-09-23T00:32:08.239Z,1.30
2022-09-23T00:34:39.254Z,1.40
2022-09-23T00:37:09.937Z,1.50
2022-09-23T00:39:40.875Z,1.60
2022-09-23T00:42:16.807Z,1.60
2022-09-23T00:44:51.194Z,1.40
2022-09-23T00:47:26.064Z,1.60
2022-09-23T00:50:03.947Z,1.60
2022-09-23T00:52:35.008Z,1.40
2022-09-23T00:55:10.623Z,1.30
2022-09-23T00:57:47.101Z,1.40
2022-09-23T01:00:17.877Z,1.30
2022-09-23T01:02:48.892Z,1.20
2022-09-23T01:05:20.423Z,1.50
2022-09-23T01:07:54.899Z,1.40
2022-09-23T01:10:28.419Z,1.20
2022-09-23T01:13:21.227Z,1.20
2022-09-23T01:16:01.695Z,1.30
2022-09-23T01:18:43.485Z,1.30
2022-09-23T01:21:31.653Z,1.30
2022-09-23T01:24:47.148Z,2.00
2022-09-23T01:27:37.694Z,1.20
2022-09-23T01:30:21.282Z,1.60
2022-09-23T01:33:12.436Z,1.50
2022-09-23T01:36:03.122Z,1.40
2022-09-23T01:38:44.001Z,1.80
2022-09-23T01:41:26.697Z,1.30
2022-09-23T01:44:05.195Z,1.30
2022-09-23T01:46:41.880Z,1.60
2022-09-23T01:49:19.068Z,1.50
2022-09-23T01:51:55.228Z,1.50
2022-09-23T01:54:32.315Z,1.30
2022-09-23T01:57:06.358Z,1.50
2022-09-23T01:59:40.279Z,1.40
2022-09-23T02:02:16.785Z,1.40
2022-09-23T02:04:54.254Z,1.20
2022-09-23T02:07:29.381Z,1.50
2022-09-23T02:10:06.753Z,1.20
2022-09-23T02:12:40.443Z,1.30
2022-09-23T02:15:15.881Z,1.60
2022-09-23T02:17:50.835Z,1.20
2022-09-23T02:20:25.451Z,1.30
2022-09-23T02:23:03.129Z,1.50
2022-09-23T02:25:41.409Z,1.30
2022-09-23T02:28:19.616Z,1.10
2022-09-23T02:31:00.986Z,1.10
2022-09-23T02:33:40.583Z,1.30
2022-09-23T02:36:16.410Z,1.60
2022-09-23T02:38:54.633Z,1.40
2022-09-23T02:41:32.401Z,1.40
2022-09-23T02:44:07.683Z,1.10
2022-09-23T02:46:39.861Z,1.30
2022-09-23T02:49:15.288Z,1.20
2022-09-23T02:51:46.657Z,1.50
2022-09-23T02:54:20.476Z,1.50
2022-09-23T02:59:22.986Z,1.40
2022-09-23T03:02:14.299Z,1.20
2022-09-23T03:04:54.862Z,1.40
2022-09-23T03:07:34.591Z,1.20
2022-09-23T03:10:14.218Z,1.10
2022-09-23T03:12:53.122Z,1.20
2022-09-23T03:15:35.369Z,1.20
2022-09-23T03:18:15.613Z,1.30
2022-09-23T03:20:51.117Z,1.50
2022-09-23T03:23:27.488Z,1.30
2022-09-23T03:26:01.399Z,1.20
2022-09-23T03:28:33.687Z,1.20
2022-09-23T03:31:05.355Z,1.30
2022-09-23T03:33:38.445Z,1.30
2022-09-23T03:36:42.829Z,1.30
2022-09-23T03:39:21.609Z,1.30
2022-09-23T03:41:54.720Z,1.40
2022-09-23T03:44:29.048Z,1.20
2022-09-23T03:47:04.552Z,1.20
2022-09-23T03:49:39.671Z,1.30
2022-09-23T03:52:11.113Z,1.80
2022-09-23T03:54:42.144Z,1.60
2022-09-23T03:57:14.339Z,1.50
2022-09-23T03:59:45.363Z,1.40
2022-09-23T04:02:16.615Z,1.60
2022-09-23T04:04:47.961Z,1.40
2022-09-23T04:07:19.124Z,1.60
2022-09-23T04:09:49.928Z,1.60
2022-09-23T04:12:20.636Z,1.30
2022-09-23T04:14:51.323Z,1.30
2022-09-23T04:17:23.010Z,1.40
2022-09-23T04:19:53.821Z,2.70
2022-09-23T04:22:24.556Z,3.40
2022-09-23T04:24:55.276Z,3.40
2022-09-23T04:27:25.932Z,3.60
2022-09-23T04:29:56.669Z,3.90
2022-09-23T04:32:27.472Z,4.00
2022-09-23T04:34:58.148Z,4.30
2022-09-23T04:37:29.504Z,4.10
2022-09-23T04:40:00.526Z,3.50
2022-09-23T04:42:32.652Z,4.00
2022-09-23T04:45:04.715Z,3.50
2022-09-23T04:47:35.823Z,3.90
2022-09-23T04:50:07.839Z,3.20
2022-09-23T04:52:38.528Z,3.50
2022-09-23T04:55:11.685Z,3.00
2022-09-23T04:57:42.366Z,2.80
2022-09-23T05:00:15.426Z,4.10
2022-09-23T05:02:47.768Z,3.80
2022-09-23T05:05:21.335Z,3.30
2022-09-23T05:07:52.477Z,3.60
2022-09-23T05:10:23.528Z,3.20
2022-09-23T05:12:57.200Z,2.80
2022-09-23T05:15:28.269Z,3.10
2022-09-23T05:18:02.611Z,2.40
2022-09-23T05:20:33.271Z,2.80
2022-09-23T05:23:03.925Z,2.60
2022-09-23T05:25:38.169Z,2.60
2022-09-23T05:28:09.546Z,3.00
2022-09-23T05:30:40.222Z,2.80
2022-09-23T05:33:11.061Z,2.50
2022-09-23T05:35:47.172Z,2.50
2022-09-23T05:38:18.481Z,3.00
2022-09-23T05:40:55.807Z,2.70
2022-09-23T05:43:26.960Z,2.20
2022-09-23T05:46:08.418Z,2.70
2022-09-23T05:48:40.347Z,2.90
2022-09-23T05:51:14.704Z,2.30
2022-09-23T05:53:46.076Z,2.10
2022-09-23T05:56:18.230Z,2.60
2022-09-23T05:58:52.494Z,2.60
2022-09-23T06:01:26.056Z,2.40
2022-09-23T06:03:58.192Z,2.40
2022-09-23T06:06:31.063Z,2.30
2022-09-23T06:09:02.837Z,2.80
2022-09-23T06:11:34.615Z,2.60
2022-09-23T06:14:05.915Z,2.50
2022-09-23T06:16:37.674Z,2.90
2022-09-23T06:19:08.423Z,2.30
2022-09-23T06:21:40.688Z,2.30
2022-09-23T06:24:17.457Z,2.50
2022-09-23T06:26:50.441Z,2.60
2022-09-23T06:29:21.149Z,2.30
2022-09-23T06:31:53.180Z,2.00
2022-09-23T06:34:23.860Z,1.70
2022-09-23T06:36:55.695Z,1.90
2022-09-23T06:39:26.776Z,2.30
2022-09-23T06:41:57.497Z,2.10
2022-09-23T06:44:28.872Z,1.90
2022-09-23T06:46:59.753Z,2.30
2022-09-23T06:49:31.617Z,2.00
2022-09-23T06:52:02.455Z,1.70
2022-09-23T06:54:33.181Z,1.90
2022-09-23T06:57:03.990Z,1.60
2022-09-23T06:59:35.344Z,1.90
2022-09-23T07:02:06.285Z,1.80
2022-09-23T07:04:37.127Z,2.40
2022-09-23T07:07:08.479Z,1.70
2022-09-23T07:09:39.420Z,2.50
2022-09-23T07:12:10.569Z,1.70
2022-09-23T07:14:41.315Z,1.60
2022-09-23T07:17:12.702Z,2.00
2022-09-23T07:19:44.079Z,2.00
2022-09-23T07:22:14.849Z,2.00
2022-09-23T07:24:46.692Z,2.00
2022-09-23T07:27:20.113Z,1.40
2022-09-23T07:29:51.981Z,1.80
2022-09-23T07:32:23.967Z,2.40
2022-09-23T07:34:55.029Z,1.70
2022-09-23T07:37:25.758Z,2.00
2022-09-23T07:39:57.286Z,1.70
2022-09-23T07:42:28.118Z,2.40
2022-09-23T07:44:58.794Z,1.90
2022-09-23T07:47:30.005Z,1.60
2022-09-23T07:50:01.117Z,1.60
2022-09-23T07:52:31.891Z,1.50
2022-09-23T07:55:02.700Z,1.80
2022-09-23T07:57:34.183Z,1.50
2022-09-23T08:00:06.368Z,1.60
2022-09-23T08:02:37.066Z,1.50
2022-09-23T08:05:09.522Z,1.30
2022-09-23T08:07:40.307Z,1.40
2022-09-23T08:10:11.853Z,1.70
2022-09-23T08:12:42.492Z,1.40
2022-09-23T08:15:13.977Z,1.40
2022-09-23T08:17:45.133Z,1.30
2022-09-23T08:20:35.907Z,1.30
2022-09-23T08:23:09.601Z,2.00
2022-09-23T08:25:40.524Z,1.50
2022-09-23T08:28:11.894Z,2.10
2022-09-23T08:30:43.417Z,1.20
2022-09-23T08:33:15.383Z,1.30
2022-09-23T08:35:47.419Z,2.00
2022-09-23T08:38:18.048Z,1.40
2022-09-23T08:40:50.882Z,2.40
2022-09-23T08:43:26.563Z,1.80
2022-09-23T08:46:00.976Z,1.20
2022-09-23T08:48:34.620Z,1.40
2022-09-23T08:51:09.380Z,1.40
2022-09-23T08:53:42.297Z,1.10
2022-09-23T08:56:17.215Z,1.30
2022-09-23T08:59:01.580Z,1.40
2022-09-23T09:01:41.281Z,1.50
2022-09-23T09:04:20.158Z,1.40
2022-09-23T09:07:03.405Z,1.90
2022-09-23T09:09:49.249Z,1.10
2022-09-23T09:12:25.441Z,1.50
2022-09-23T09:15:03.103Z,1.30
2022-09-23T09:17:39.884Z,1.10
2022-09-23T09:20:25.053Z,1.10
2022-09-23T09:23:00.668Z,1.30
2022-09-23T09:25:50.582Z,1.10
2022-09-23T09:28:25.894Z,1.20
2022-09-23T09:31:02.662Z,1.20
2022-09-23T09:33:44.262Z,1.30
2022-09-23T09:36:24.836Z,1.20
2022-09-23T09:38:57.213Z,1.30
2022-09-23T09:41:31.467Z,1.30
2022-09-23T09:44:11.052Z,1.20
2022-09-23T09:47:01.760Z,1.10
2022-09-23T09:49:41.990Z,1.00
2022-09-23T09:52:21.335Z,1.40
2022-09-23T09:54:52.801Z,1.80
2022-09-23T09:57:35.838Z,1.30
2022-09-23T10:00:36.530Z,1.40
2022-09-23T10:03:31.585Z,1.20
2022-09-23T10:06:13.758Z,1.50
2022-09-23T10:08:52.803Z,1.10
2022-09-23T10:11:23.933Z,1.10
2022-09-23T10:14:09.401Z,1.20
2022-09-23T10:16:41.762Z,1.30
2022-09-23T10:19:26.109Z,1.10
2022-09-23T10:22:00.327Z,1.30
2022-09-23T10:24:34.292Z,1.60
2022-09-23T10:27:09.119Z,1.50
2022-09-23T10:29:49.879Z,1.80
2022-09-23T10:32:30.854Z,1.30
2022-09-23T10:35:13.412Z,1.60
2022-09-23T10:37:46.859Z,1.10
2022-09-23T10:40:41.141Z,1.50
2022-09-23T10:43:46.553Z,1.30
2022-09-23T10:46:42.759Z,1.30
2022-09-23T10:49:28.797Z,1.50
2022-09-23T10:54:49.368Z,1.10
2022-09-23T10:57:40.597Z,1.30
2022-09-23T11:00:24.911Z,1.40
2022-09-23T11:03:26.123Z,0.90
2022-09-23T11:06:13.094Z,1.00
2022-09-23T11:08:58.752Z,1.40
2022-09-23T11:11:42.325Z,1.10
2022-09-23T11:14:38.771Z,1.20
2022-09-23T11:17:27.121Z,1.00
2022-09-23T11:20:34.142Z,0.90
2022-09-23T11:23:20.365Z,1.30
2022-09-23T11:26:01.480Z,0.90
2022-09-23T11:28:45.499Z,1.20
2022-09-23T11:31:28.326Z,1.00
2022-09-23T11:34:12.168Z,1.10
2022-09-23T11:36:47.801Z,0.90
2022-09-23T11:39:22.571Z,1.10
2022-09-23T11:41:57.813Z,0.90
2022-09-23T11:44:33.219Z,0.90
2022-09-23T11:47:08.823Z,0.90
2022-09-23T11:49:42.361Z,0.90
2022-09-23T11:52:19.780Z,1.20
2022-09-23T11:54:55.939Z,1.00
2022-09-23T11:57:43.102Z,1.20
2022-09-23T12:03:05.467Z,1.10
2022-09-23T12:05:40.608Z,1.00
2022-09-23T12:08:23.288Z,1.00
2022-09-23T12:10:59.072Z,1.10
2022-09-23T12:13:39.059Z,1.10
2022-09-23T12:16:30.677Z,1.20
2022-09-23T12:19:13.433Z,1.00
2022-09-23T12:22:03.051Z,0.80
2022-09-23T12:24:48.981Z,1.00
2022-09-23T12:29:59.954Z,0.60
2022-09-23T12:32:31.410Z,1.30
2022-09-23T12:35:02.867Z,1.10
2022-09-23T12:37:38.205Z,0.90
2022-09-23T12:40:21.799Z,1.10
2022-09-23T12:42:53.091Z,0.80
2022-09-23T12:45:39.989Z,1.20
2022-09-23T12:48:37.955Z,0.90
2022-09-23T12:51:17.960Z,0.60
2022-09-23T12:54:12.078Z,0.70
2022-09-23T12:57:10.853Z,0.80
2022-09-23T12:59:59.785Z,1.40
2022-09-23T13:02:40.178Z,1.00
2022-09-23T13:05:40.988Z,0.80
2022-09-23T13:08:17.761Z,0.90
2022-09-23T13:10:53.650Z,0.80
2022-09-23T13:13:31.820Z,0.70
2022-09-23T13:16:20.627Z,0.90
2022-09-23T13:18:56.528Z,0.70
2022-09-23T13:22:09.287Z,1.00
2022-09-23T13:24:55.723Z,0.70
2022-09-23T13:27:31.761Z,0.60
2022-09-23T13:30:07.826Z,0.90
2022-09-23T13:32:51.696Z,0.70
2022-09-23T13:35:31.811Z,1.00
2022-09-23T13:38:12.717Z,0.60
2022-09-23T13:40:46.520Z,0.70
2022-09-23T13:45:52.982Z,0.70
2022-09-23T13:48:27.204Z,0.70
2022-09-23T13:50:58.249Z,0.80
2022-09-23T13:53:32.376Z,0.80
2022-09-23T13:56:06.103Z,1.20
2022-09-23T14:01:11.041Z,0.70
2022-09-23T14:03:41.996Z,0.50
2022-09-23T14:06:16.495Z,0.90
2022-09-23T14:08:50.241Z,0.60
2022-09-23T14:13:55.152Z,1.00
2022-09-23T14:16:28.222Z,0.80
2022-09-23T14:19:01.737Z,0.70
2022-09-23T14:21:35.435Z,0.90
2022-09-23T14:26:46.936Z,0.70
2022-09-23T14:29:21.017Z,0.80
2022-09-23T14:32:00.768Z,0.60
2022-09-23T14:37:43.012Z,0.80
2022-09-23T14:40:17.322Z,0.70
2022-09-23T14:42:51.542Z,0.70
2022-09-23T14:45:25.560Z,0.60
2022-09-23T14:48:00.483Z,0.70
2022-09-23T14:50:47.411Z,0.60
2022-09-23T14:53:37.203Z,0.40
2022-09-23T14:56:20.442Z,0.50
2022-09-23T14:58:54.585Z,0.60
2022-09-23T15:01:35.126Z,0.90
2022-09-23T15:04:16.275Z,0.80
2022-09-23T15:06:52.034Z,1.10
2022-09-23T15:09:30.489Z,1.60
2022-09-23T15:12:04.171Z,1.30
2022-09-23T15:14:41.008Z,1.40
2022-09-23T15:17:34.385Z,1.30
2022-09-23T15:20:10.084Z,1.90
2022-09-23T15:22:48.412Z,1.80
2022-09-23T15:25:22.636Z,1.60
2022-09-23T15:28:03.137Z,8.40
2022-09-23T15:30:36.363Z,6.60
2022-09-23T15:33:09.074Z,6.30
2022-09-23T15:35:44.140Z,7.40
2022-09-23T15:38:17.650Z,6.30
2022-09-23T15:40:48.931Z,6.90
2022-09-23T15:43:22.077Z,6.50
2022-09-23T15:45:54.416Z,6.10
2022-09-23T15:48:28.893Z,6.20
2022-09-23T15:51:04.068Z,5.40
2022-09-23T15:53:35.510Z,5.50
2022-09-23T15:56:06.934Z,5.30
2022-09-23T15:58:37.918Z,5.40
2022-09-23T16:01:14.635Z,5.20
2022-09-23T16:03:45.494Z,5.60
2022-09-23T16:06:16.486Z,5.90
2022-09-23T16:08:49.020Z,5.50
2022-09-23T16:11:21.916Z,4.80
2022-09-23T16:13:53.086Z,5.70
2022-09-23T16:16:24.231Z,4.60
2022-09-23T16:18:55.666Z,4.60
2022-09-23T16:21:28.783Z,4.40
2022-09-23T16:23:59.680Z,4.00
2022-09-23T16:26:32.816Z,4.10
2022-09-23T16:29:04.146Z,4.10
2022-09-23T16:31:36.383Z,3.40
2022-09-23T16:34:07.647Z,3.60
2022-09-23T16:36:42.422Z,3.50
2022-09-23T16:39:14.859Z,3.00
2022-09-23T16:41:46.048Z,4.50
2022-09-23T16:44:17.045Z,2.90
2022-09-23T16:46:48.044Z,3.10
2022-09-23T16:49:18.728Z,3.20
2022-09-23T16:51:49.628Z,2.80
2022-09-23T16:54:20.611Z,2.90
2022-09-23T16:56:51.936Z,2.60
2022-09-23T16:59:22.900Z,2.00
2022-09-23T17:02:11.197Z,2.30
2022-09-23T17:04:42.014Z,2.40
2022-09-23T17:07:12.834Z,2.20
2022-09-23T17:09:43.801Z,2.40
2022-09-23T17:12:21.207Z,2.20
2022-09-23T17:14:52.551Z,1.70
2022-09-23T17:17:23.526Z,2.10
2022-09-23T17:19:54.484Z,1.80
2022-09-23T17:22:25.322Z,2.00
2022-09-23T17:24:56.148Z,2.00
2022-09-23T17:27:27.311Z,1.70
2022-09-23T17:29:58.208Z,2.20
2022-09-23T17:32:29.325Z,1.70
2022-09-23T17:35:04.571Z,1.80
2022-09-23T17:37:35.700Z,1.70
2022-09-23T17:40:08.088Z,1.70
2022-09-23T17:42:42.758Z,1.80
2022-09-23T17:45:13.888Z,1.80
2022-09-23T17:47:54.953Z,1.30
2022-09-23T17:50:25.776Z,1.50
2022-09-23T17:52:56.974Z,1.40
2022-09-23T17:55:27.796Z,1.90
2022-09-23T17:57:58.666Z,1.50
2022-09-23T18:00:29.574Z,1.40
2022-09-23T18:03:00.386Z,1.70
2022-09-23T18:05:31.202Z,2.00
2022-09-23T18:08:05.894Z,1.90
2022-09-23T18:10:37.081Z,1.70
2022-09-23T18:13:08.246Z,1.80
2022-09-23T18:15:40.363Z,1.50
2022-09-23T18:18:11.199Z,1.60
2022-09-23T18:20:41.998Z,1.50
2022-09-23T18:23:13.480Z,1.60
2022-09-23T18:25:44.299Z,1.60
2022-09-23T18:28:15.923Z,2.30
2022-09-23T18:30:56.892Z,1.30
2022-09-23T18:33:28.007Z,2.10
2022-09-23T18:36:02.372Z,1.40
2022-09-23T18:38:33.856Z,1.80
2022-09-23T18:41:04.843Z,1.10
2022-09-23T18:43:40.761Z,1.50
2022-09-23T18:46:16.589Z,1.30
2022-09-23T18:49:07.889Z,1.30
2022-09-23T18:51:42.125Z,1.30
2022-09-23T18:54:13.404Z,1.90
2022-09-23T18:56:46.470Z,1.30
2022-09-23T18:59:20.517Z,1.40
2022-09-23T19:01:55.513Z,1.10
2022-09-23T19:04:28.227Z,1.20
2022-09-23T19:06:59.128Z,1.30
2022-09-23T19:09:29.984Z,1.30
2022-09-23T19:12:02.569Z,1.60
2022-09-23T19:14:33.983Z,1.30
2022-09-23T19:17:05.163Z,1.40
2022-09-23T19:19:35.995Z,1.80
2022-09-23T19:22:07.127Z,1.40
2022-09-23T19:24:38.117Z,2.00
2022-09-23T19:27:09.076Z,1.20
2022-09-23T19:29:40.398Z,1.50
2022-09-23T19:32:11.418Z,1.40
2022-09-23T19:34:43.757Z,1.20
2022-09-23T19:37:16.683Z,1.70
2022-09-23T19:39:47.785Z,1.60
2022-09-23T19:42:18.673Z,1.30
2022-09-23T19:44:50.343Z,1.60
2022-09-23T19:47:21.170Z,1.30
2022-09-23T19:49:52.009Z,1.50
2022-09-23T19:52:22.976Z,1.90
2022-09-23T19:54:53.838Z,1.70
2022-09-23T19:57:27.696Z,1.60
2022-09-23T19:59:58.544Z,1.20
2022-09-23T20:02:29.439Z,1.70
2022-09-23T20:05:00.251Z,1.60
2022-09-23T20:07:30.933Z,1.80
2022-09-23T20:10:02.007Z,1.90
2022-09-23T20:12:35.461Z,1.70
2022-09-23T20:15:07.468Z,2.20
2022-09-23T20:17:38.518Z,1.80
2022-09-23T20:20:11.636Z,1.60
2022-09-23T20:22:42.773Z,1.70
2022-09-23T20:25:14.425Z,1.70
2022-09-23T20:27:49.534Z,2.20
2022-09-23T20:30:23.221Z,1.80
2022-09-23T20:32:53.925Z,1.70
2022-09-23T20:35:25.135Z,1.50
2022-09-23T20:37:56.059Z,1.60
2022-09-23T20:40:27.159Z,1.90
2022-09-23T20:42:58.549Z,1.60
2022-09-23T20:45:29.324Z,1.60
2022-09-23T20:48:01.700Z,1.60
2022-09-23T20:50:32.397Z,1.80
2022-09-23T20:53:03.278Z,2.00
2022-09-23T20:55:34.018Z,1.80
2022-09-23T20:58:05.125Z,2.20
2022-09-23T21:00:36.299Z,1.70
2022-09-23T21:03:07.154Z,2.20
2022-09-23T21:05:42.131Z,2.00
2022-09-23T21:08:12.923Z,2.00
2022-09-23T21:10:43.635Z,1.70
2022-09-23T21:13:14.405Z,1.80
2022-09-23T21:15:45.179Z,1.90
2022-09-23T21:18:20.434Z,2.00
2022-09-23T21:21:00.491Z,2.20
2022-09-23T21:23:33.300Z,2.10
2022-09-23T21:26:04.972Z,2.00
2022-09-23T21:28:37.356Z,1.80
2022-09-23T21:31:09.687Z,2.20
2022-09-23T21:33:40.776Z,1.60
2022-09-23T21:36:13.257Z,1.70
2022-09-23T21:38:43.890Z,1.80
2022-09-23T21:41:14.824Z,2.20
2022-09-23T21:43:45.766Z,2.00
2022-09-23T21:46:20.094Z,2.00
2022-09-23T21:48:53.828Z,1.30
2022-09-23T21:51:26.844Z,1.50
2022-09-23T21:53:59.022Z,2.10
2022-09-23T21:56:32.864Z,1.90
2022-09-23T21:59:04.018Z,2.00
2022-09-23T22:01:36.580Z,2.10
2022-09-23T22:04:13.348Z,2.00
2022-09-23T22:06:45.263Z,1.90
2022-09-23T22:09:18.043Z,2.10
2022-09-23T22:12:09.606Z,2.00
2022-09-23T22:14:40.627Z,1.90
2022-09-23T22:17:14.532Z,2.30
2022-09-23T22:19:47.487Z,1.90
2022-09-23T22:22:19.448Z,1.90
2022-09-23T22:24:50.174Z,2.20
2022-09-23T22:27:21.629Z,1.80
2022-09-23T22:30:15.342Z,1.90
2022-09-23T22:32:46.841Z,1.90
2022-09-23T22:35:20.447Z,1.90
2022-09-23T22:37:51.083Z,2.10
2022-09-23T22:40:24.170Z,2.00
2022-09-23T22:42:55.477Z,2.00
2022-09-23T22:45:26.570Z,2.20
2022-09-23T22:47:57.192Z,2.10
2022-09-23T22:50:28.325Z,1.80
2022-09-23T22:53:00.109Z,1.80
2022-09-23T22:55:30.953Z,2.30
2022-09-23T22:58:15.564Z,1.90
2022-09-23T23:00:54.065Z,2.10
2022-09-23T23:03:26.586Z,2.00
2022-09-23T23:06:00.284Z,1.90
2022-09-23T23:08:32.105Z,2.50
2022-09-23T23:11:07.300Z,2.10
2022-09-23T23:13:39.290Z,1.90
2022-09-23T23:16:12.419Z,2.20
2022-09-23T23:18:45.518Z,2.00
2022-09-23T23:21:18.559Z,2.10
2022-09-23T23:23:51.594Z,2.20
2022-09-23T23:26:24.630Z,2.00
2022-09-23T23:28:56.763Z,2.20
2022-09-23T23:31:29.023Z,1.90
2022-09-23T23:34:00.100Z,2.10
2022-09-23T23:36:31.419Z,1.80
2022-09-23T23:39:01.984Z,1.70
2022-09-23T23:41:32.845Z,1.80
2022-09-23T23:44:04.126Z,1.90
2022-09-23T23:46:37.393Z,1.80
2022-09-23T23:49:08.563Z,1.80
2022-09-23T23:51:39.173Z,2.00
2022-09-23T23:54:10.461Z,1.90
2022-09-23T23:56:41.274Z,2.10
2022-09-23T23:59:12.204Z,2.30
